sensor_id;sensor_type;location;lat;lon;timestamp;P1;durP1;ratioP1;P2;durP2;ratioP2
69085;SDS011;56186;59.144;37.936;2022-07-06T00:01:51;18.92;;;11.00;;
69085;SDS011;56186;59.144;37.936;2022-07-06T00:04:17;19.25;;;10.90;;
69085;SDS011;56186;59.144;37.936;2022-07-06T00:06:44;17.20;;;10.38;;
69085;SDS011;56186;59.144;37.936;2022-07-06T00:09:10;18.17;;;11.35;;
69085;SDS011;56186;59.144;37.936;2022-07-06T00:11:36;19.63;;;11.18;;
69085;SDS011;56186;59.144;37.936;2022-07-06T00:14:03;20.20;;;10.68;;
69085;SDS011;56186;59.144;37.936;2022-07-06T00:16:29;19.95;;;10.43;;
69085;SDS011;56186;59.144;37.936;2022-07-06T00:18:55;21.77;;;11.63;;
69085;SDS011;56186;59.144;37.936;2022-07-06T00:21:21;19.02;;;10.77;;
69085;SDS011;56186;59.144;37.936;2022-07-06T00:23:47;21.52;;;10.95;;
69085;SDS011;56186;59.144;37.936;2022-07-06T00:26:13;22.88;;;11.82;;
69085;SDS011;56186;59.144;37.936;2022-07-06T00:28:39;20.00;;;11.20;;
69085;SDS011;56186;59.144;37.936;2022-07-06T00:31:05;19.17;;;11.02;;
69085;SDS011;56186;59.144;37.936;2022-07-06T00:33:31;21.10;;;11.55;;
69085;SDS011;56186;59.144;37.936;2022-07-06T00:35:57;18.75;;;10.70;;
69085;SDS011;56186;59.144;37.936;2022-07-06T00:38:23;19.67;;;10.77;;
69085;SDS011;56186;59.144;37.936;2022-07-06T00:40:49;21.48;;;11.18;;
69085;SDS011;56186;59.144;37.936;2022-07-06T00:43:15;17.23;;;10.68;;
69085;SDS011;56186;59.144;37.936;2022-07-06T00:45:41;20.35;;;11.93;;
69085;SDS011;56186;59.144;37.936;2022-07-06T00:48:09;20.65;;;11.13;;
69085;SDS011;56186;59.144;37.936;2022-07-06T00:50:35;19.02;;;10.68;;
69085;SDS011;56186;59.144;37.936;2022-07-06T00:53:02;23.52;;;12.32;;
69085;SDS011;56186;59.144;37.936;2022-07-06T00:55:30;23.40;;;12.07;;
69085;SDS011;56186;59.144;37.936;2022-07-06T00:58:02;20.92;;;11.73;;
69085;SDS011;56186;59.144;37.936;2022-07-06T01:00:29;23.00;;;12.45;;
69085;SDS011;56186;59.144;37.936;2022-07-06T01:02:56;41.47;;;18.08;;
69085;SDS011;56186;59.144;37.936;2022-07-06T01:05:23;48.13;;;21.27;;
69085;SDS011;56186;59.144;37.936;2022-07-06T01:07:50;83.10;;;30.10;;
69085;SDS011;56186;59.144;37.936;2022-07-06T01:10:17;80.35;;;29.15;;
69085;SDS011;56186;59.144;37.936;2022-07-06T01:12:45;92.55;;;30.00;;
69085;SDS011;56186;59.144;37.936;2022-07-06T01:15:14;84.90;;;30.35;;
69085;SDS011;56186;59.144;37.936;2022-07-06T01:17:42;68.70;;;28.23;;
69085;SDS011;56186;59.144;37.936;2022-07-06T01:20:15;71.90;;;28.58;;
69085;SDS011;56186;59.144;37.936;2022-07-06T01:22:44;64.72;;;27.70;;
69085;SDS011;56186;59.144;37.936;2022-07-06T01:25:12;70.28;;;28.17;;
69085;SDS011;56186;59.144;37.936;2022-07-06T01:27:39;67.80;;;28.90;;
69085;SDS011;56186;59.144;37.936;2022-07-06T01:30:07;57.13;;;27.25;;
69085;SDS011;56186;59.144;37.936;2022-07-06T01:32:35;51.47;;;27.08;;
69085;SDS011;56186;59.144;37.936;2022-07-06T01:35:02;44.17;;;23.60;;
69085;SDS011;56186;59.144;37.936;2022-07-06T01:37:30;45.38;;;23.92;;
69085;SDS011;56186;59.144;37.936;2022-07-06T01:40:00;44.40;;;23.70;;
69085;SDS011;56186;59.144;37.936;2022-07-06T01:42:27;41.97;;;22.15;;
69085;SDS011;56186;59.144;37.936;2022-07-06T01:44:54;37.08;;;20.58;;
69085;SDS011;56186;59.144;37.936;2022-07-06T01:47:20;37.38;;;20.92;;
69085;SDS011;56186;59.144;37.936;2022-07-06T01:49:49;43.78;;;25.08;;
69085;SDS011;56186;59.144;37.936;2022-07-06T01:52:15;47.60;;;25.58;;
69085;SDS011;56186;59.144;37.936;2022-07-06T01:54:42;48.00;;;25.73;;
69085;SDS011;56186;59.144;37.936;2022-07-06T01:57:08;48.08;;;25.15;;
69085;SDS011;56186;59.144;37.936;2022-07-06T01:59:34;54.33;;;26.48;;
69085;SDS011;56186;59.144;37.936;2022-07-06T02:02:00;51.28;;;26.67;;
69085;SDS011;56186;59.144;37.936;2022-07-06T02:04:26;49.55;;;25.50;;
69085;SDS011;56186;59.144;37.936;2022-07-06T02:06:52;50.67;;;27.08;;
69085;SDS011;56186;59.144;37.936;2022-07-06T02:09:18;50.08;;;26.65;;
69085;SDS011;56186;59.144;37.936;2022-07-06T02:11:44;49.88;;;26.23;;
69085;SDS011;56186;59.144;37.936;2022-07-06T02:14:10;44.95;;;24.60;;
69085;SDS011;56186;59.144;37.936;2022-07-06T02:16:39;50.10;;;26.65;;
69085;SDS011;56186;59.144;37.936;2022-07-06T02:19:05;47.35;;;25.27;;
69085;SDS011;56186;59.144;37.936;2022-07-06T02:21:31;46.67;;;23.92;;
69085;SDS011;56186;59.144;37.936;2022-07-06T02:23:57;55.63;;;29.38;;
69085;SDS011;56186;59.144;37.936;2022-07-06T02:26:23;42.22;;;24.60;;
69085;SDS011;56186;59.144;37.936;2022-07-06T02:28:49;36.42;;;23.02;;
69085;SDS011;56186;59.144;37.936;2022-07-06T02:31:16;33.03;;;19.75;;
69085;SDS011;56186;59.144;37.936;2022-07-06T02:33:44;28.65;;;17.35;;
69085;SDS011;56186;59.144;37.936;2022-07-06T02:36:12;24.90;;;15.27;;
69085;SDS011;56186;59.144;37.936;2022-07-06T02:38:38;25.65;;;15.57;;
69085;SDS011;56186;59.144;37.936;2022-07-06T02:41:04;23.48;;;13.20;;
69085;SDS011;56186;59.144;37.936;2022-07-06T02:43:30;21.00;;;12.60;;
69085;SDS011;56186;59.144;37.936;2022-07-06T02:45:58;20.48;;;12.88;;
69085;SDS011;56186;59.144;37.936;2022-07-06T02:48:26;19.88;;;11.57;;
69085;SDS011;56186;59.144;37.936;2022-07-06T02:50:52;17.83;;;11.43;;
69085;SDS011;56186;59.144;37.936;2022-07-06T02:53:18;18.52;;;11.48;;
69085;SDS011;56186;59.144;37.936;2022-07-06T02:55:47;17.52;;;11.23;;
69085;SDS011;56186;59.144;37.936;2022-07-06T02:58:13;19.08;;;11.00;;
69085;SDS011;56186;59.144;37.936;2022-07-06T03:00:40;19.10;;;11.52;;
69085;SDS011;56186;59.144;37.936;2022-07-06T03:03:06;20.08;;;11.55;;
69085;SDS011;56186;59.144;37.936;2022-07-06T03:05:33;15.10;;;9.25;;
69085;SDS011;56186;59.144;37.936;2022-07-06T03:07:59;16.42;;;9.27;;
69085;SDS011;56186;59.144;37.936;2022-07-06T03:10:25;14.80;;;9.95;;
69085;SDS011;56186;59.144;37.936;2022-07-06T03:12:52;14.73;;;9.20;;
69085;SDS011;56186;59.144;37.936;2022-07-06T03:15:18;12.80;;;8.30;;
69085;SDS011;56186;59.144;37.936;2022-07-06T03:17:45;16.05;;;10.10;;
69085;SDS011;56186;59.144;37.936;2022-07-06T03:20:12;13.90;;;9.43;;
69085;SDS011;56186;59.144;37.936;2022-07-06T03:22:40;14.02;;;9.32;;
69085;SDS011;56186;59.144;37.936;2022-07-06T03:25:06;14.90;;;9.48;;
69085;SDS011;56186;59.144;37.936;2022-07-06T03:27:34;13.57;;;9.18;;
69085;SDS011;56186;59.144;37.936;2022-07-06T03:30:02;12.68;;;8.77;;
69085;SDS011;56186;59.144;37.936;2022-07-06T03:32:29;15.30;;;8.57;;
69085;SDS011;56186;59.144;37.936;2022-07-06T03:34:58;14.30;;;9.43;;
69085;SDS011;56186;59.144;37.936;2022-07-06T03:37:24;13.05;;;8.73;;
69085;SDS011;56186;59.144;37.936;2022-07-06T03:39:50;12.85;;;8.88;;
69085;SDS011;56186;59.144;37.936;2022-07-06T03:42:17;13.65;;;9.02;;
69085;SDS011;56186;59.144;37.936;2022-07-06T03:44:43;12.10;;;8.80;;
69085;SDS011;56186;59.144;37.936;2022-07-06T03:47:09;10.63;;;7.70;;
69085;SDS011;56186;59.144;37.936;2022-07-06T03:49:35;12.77;;;8.93;;
69085;SDS011;56186;59.144;37.936;2022-07-06T03:52:02;11.63;;;8.43;;
69085;SDS011;56186;59.144;37.936;2022-07-06T03:54:35;12.15;;;8.27;;
69085;SDS011;56186;59.144;37.936;2022-07-06T03:57:04;11.50;;;7.80;;
69085;SDS011;56186;59.144;37.936;2022-07-06T03:59:30;11.82;;;8.10;;
69085;SDS011;56186;59.144;37.936;2022-07-06T04:01:56;11.60;;;7.55;;
69085;SDS011;56186;59.144;37.936;2022-07-06T04:04:22;12.60;;;8.43;;
69085;SDS011;56186;59.144;37.936;2022-07-06T04:06:48;12.57;;;8.18;;
69085;SDS011;56186;59.144;37.936;2022-07-06T04:09:14;12.40;;;7.97;;
69085;SDS011;56186;59.144;37.936;2022-07-06T04:11:41;10.32;;;7.47;;
69085;SDS011;56186;59.144;37.936;2022-07-06T04:14:07;12.43;;;8.07;;
69085;SDS011;56186;59.144;37.936;2022-07-06T04:16:33;11.77;;;8.00;;
69085;SDS011;56186;59.144;37.936;2022-07-06T04:18:59;13.57;;;8.60;;
69085;SDS011;56186;59.144;37.936;2022-07-06T04:21:25;11.35;;;8.13;;
69085;SDS011;56186;59.144;37.936;2022-07-06T04:23:51;13.10;;;8.77;;
69085;SDS011;56186;59.144;37.936;2022-07-06T04:26:18;12.95;;;8.50;;
69085;SDS011;56186;59.144;37.936;2022-07-06T04:28:44;12.93;;;8.63;;
69085;SDS011;56186;59.144;37.936;2022-07-06T04:31:10;13.27;;;8.02;;
69085;SDS011;56186;59.144;37.936;2022-07-06T04:33:41;11.70;;;8.35;;
69085;SDS011;56186;59.144;37.936;2022-07-06T04:36:09;11.65;;;8.13;;
69085;SDS011;56186;59.144;37.936;2022-07-06T04:38:39;12.02;;;8.38;;
69085;SDS011;56186;59.144;37.936;2022-07-06T04:41:07;13.18;;;8.45;;
69085;SDS011;56186;59.144;37.936;2022-07-06T04:43:33;13.13;;;8.88;;
69085;SDS011;56186;59.144;37.936;2022-07-06T04:45:59;14.65;;;9.45;;
69085;SDS011;56186;59.144;37.936;2022-07-06T04:48:27;13.95;;;9.20;;
69085;SDS011;56186;59.144;37.936;2022-07-06T04:50:53;13.82;;;9.50;;
69085;SDS011;56186;59.144;37.936;2022-07-06T04:53:24;14.23;;;9.20;;
69085;SDS011;56186;59.144;37.936;2022-07-06T04:55:50;14.38;;;9.60;;
69085;SDS011;56186;59.144;37.936;2022-07-06T04:58:17;15.32;;;9.23;;
69085;SDS011;56186;59.144;37.936;2022-07-06T05:00:42;14.27;;;8.77;;
69085;SDS011;56186;59.144;37.936;2022-07-06T05:03:08;12.60;;;8.75;;
69085;SDS011;56186;59.144;37.936;2022-07-06T05:05:35;13.70;;;9.68;;
69085;SDS011;56186;59.144;37.936;2022-07-06T05:08:01;13.13;;;9.73;;
69085;SDS011;56186;59.144;37.936;2022-07-06T05:10:27;14.02;;;9.90;;
69085;SDS011;56186;59.144;37.936;2022-07-06T05:12:55;12.75;;;9.40;;
69085;SDS011;56186;59.144;37.936;2022-07-06T05:15:22;14.63;;;9.18;;
69085;SDS011;56186;59.144;37.936;2022-07-06T05:17:49;13.45;;;8.88;;
69085;SDS011;56186;59.144;37.936;2022-07-06T05:20:15;11.63;;;8.63;;
69085;SDS011;56186;59.144;37.936;2022-07-06T05:22:43;13.63;;;8.25;;
69085;SDS011;56186;59.144;37.936;2022-07-06T05:25:09;13.00;;;9.25;;
69085;SDS011;56186;59.144;37.936;2022-07-06T05:27:36;13.57;;;9.38;;
69085;SDS011;56186;59.144;37.936;2022-07-06T05:30:02;16.65;;;11.15;;
69085;SDS011;56186;59.144;37.936;2022-07-06T05:32:30;14.63;;;10.32;;
69085;SDS011;56186;59.144;37.936;2022-07-06T05:34:56;14.57;;;11.10;;
69085;SDS011;56186;59.144;37.936;2022-07-06T05:37:22;14.13;;;10.43;;
69085;SDS011;56186;59.144;37.936;2022-07-06T05:39:48;14.55;;;9.95;;
69085;SDS011;56186;59.144;37.936;2022-07-06T05:42:16;16.35;;;11.35;;
69085;SDS011;56186;59.144;37.936;2022-07-06T05:44:44;13.30;;;9.75;;
69085;SDS011;56186;59.144;37.936;2022-07-06T05:47:10;16.17;;;11.13;;
69085;SDS011;56186;59.144;37.936;2022-07-06T05:50:02;18.23;;;10.57;;
69085;SDS011;56186;59.144;37.936;2022-07-06T05:52:42;14.23;;;10.18;;
69085;SDS011;56186;59.144;37.936;2022-07-06T05:55:12;16.65;;;10.45;;
69085;SDS011;56186;59.144;37.936;2022-07-06T05:57:39;14.63;;;10.38;;
69085;SDS011;56186;59.144;37.936;2022-07-06T06:00:08;15.82;;;10.70;;
69085;SDS011;56186;59.144;37.936;2022-07-06T06:02:41;15.40;;;10.10;;
69085;SDS011;56186;59.144;37.936;2022-07-06T06:05:12;14.40;;;10.13;;
69085;SDS011;56186;59.144;37.936;2022-07-06T06:07:40;14.60;;;10.25;;
